sensor_id;sensor_type;location;lat;lon;timestamp;P1;durP1;ratioP1;P2;durP2;ratioP2
61702;SDS011;47622;47.726;3.298;2023-02-20T00:01:47;12.73;;;8.07;;
61702;SDS011;47622;47.726;3.298;2023-02-20T00:04:14;14.45;;;6.78;;
61702;SDS011;47622;47.726;3.298;2023-02-20T00:06:39;12.40;;;7.50;;
61702;SDS011;47622;47.726;3.298;2023-02-20T00:09:05;13.50;;;7.93;;
61702;SDS011;47622;47.726;3.298;2023-02-20T00:11:30;18.52;;;9.45;;
61702;SDS011;47622;47.726;3.298;2023-02-20T00:13:56;17.02;;;9.05;;
61702;SDS011;47622;47.726;3.298;2023-02-20T00:16:22;12.45;;;7.70;;
61702;SDS011;47622;47.726;3.298;2023-02-20T00:18:47;20.30;;;9.00;;
61702;SDS011;47622;47.726;3.298;2023-02-20T00:21:13;15.82;;;8.27;;
61702;SDS011;47622;47.726;3.298;2023-02-20T00:23:38;16.23;;;9.02;;
61702;SDS011;47622;47.726;3.298;2023-02-20T00:26:07;14.75;;;7.90;;
61702;SDS011;47622;47.726;3.298;2023-02-20T00:28:40;13.27;;;7.78;;
61702;SDS011;47622;47.726;3.298;2023-02-20T00:31:07;20.20;;;8.60;;
61702;SDS011;47622;47.726;3.298;2023-02-20T00:33:35;16.33;;;8.63;;
61702;SDS011;47622;47.726;3.298;2023-02-20T00:36:02;12.15;;;6.88;;
61702;SDS011;47622;47.726;3.298;2023-02-20T00:38:28;13.55;;;7.47;;
61702;SDS011;47622;47.726;3.298;2023-02-20T00:40:54;13.05;;;7.95;;
61702;SDS011;47622;47.726;3.298;2023-02-20T00:43:19;14.98;;;8.07;;
61702;SDS011;47622;47.726;3.298;2023-02-20T00:45:45;20.60;;;10.50;;
61702;SDS011;47622;47.726;3.298;2023-02-20T00:48:11;22.23;;;12.52;;
61702;SDS011;47622;47.726;3.298;2023-02-20T00:50:36;23.92;;;12.63;;
61702;SDS011;47622;47.726;3.298;2023-02-20T00:53:02;18.35;;;10.15;;
61702;SDS011;47622;47.726;3.298;2023-02-20T00:55:29;16.95;;;8.77;;
61702;SDS011;47622;47.726;3.298;2023-02-20T00:57:54;14.65;;;8.93;;
61702;SDS011;47622;47.726;3.298;2023-02-20T01:02:52;13.27;;;7.57;;
61702;SDS011;47622;47.726;3.298;2023-02-20T01:05:17;14.05;;;8.02;;
61702;SDS011;47622;47.726;3.298;2023-02-20T01:07:43;11.48;;;7.88;;
61702;SDS011;47622;47.726;3.298;2023-02-20T01:10:09;11.02;;;6.60;;
61702;SDS011;47622;47.726;3.298;2023-02-20T01:12:37;14.32;;;7.25;;
61702;SDS011;47622;47.726;3.298;2023-02-20T01:15:04;10.65;;;5.93;;
61702;SDS011;47622;47.726;3.298;2023-02-20T01:17:31;12.77;;;6.63;;
61702;SDS011;47622;47.726;3.298;2023-02-20T01:19:57;15.95;;;6.90;;
61702;SDS011;47622;47.726;3.298;2023-02-20T01:22:23;11.77;;;6.60;;
61702;SDS011;47622;47.726;3.298;2023-02-20T01:24:48;12.02;;;6.57;;
61702;SDS011;47622;47.726;3.298;2023-02-20T01:27:14;11.55;;;7.15;;
61702;SDS011;47622;47.726;3.298;2023-02-20T01:29:41;15.88;;;7.65;;
61702;SDS011;47622;47.726;3.298;2023-02-20T01:32:06;14.43;;;7.50;;
61702;SDS011;47622;47.726;3.298;2023-02-20T01:34:37;18.35;;;7.90;;
61702;SDS011;47622;47.726;3.298;2023-02-20T01:37:03;14.65;;;6.95;;
61702;SDS011;47622;47.726;3.298;2023-02-20T01:39:29;15.60;;;8.18;;
61702;SDS011;47622;47.726;3.298;2023-02-20T01:42:01;12.90;;;7.30;;
61702;SDS011;47622;47.726;3.298;2023-02-20T01:44:30;12.75;;;7.40;;
61702;SDS011;47622;47.726;3.298;2023-02-20T01:47:04;13.07;;;6.90;;
61702;SDS011;47622;47.726;3.298;2023-02-20T01:52:19;9.65;;;5.80;;
61702;SDS011;47622;47.726;3.298;2023-02-20T01:54:51;7.60;;;5.25;;
61702;SDS011;47622;47.726;3.298;2023-02-20T01:57:21;12.63;;;6.20;;
61702;SDS011;47622;47.726;3.298;2023-02-20T01:59:51;11.15;;;6.32;;
61702;SDS011;47622;47.726;3.298;2023-02-20T02:02:22;9.20;;;5.88;;
61702;SDS011;47622;47.726;3.298;2023-02-20T02:04:49;10.68;;;6.50;;
61702;SDS011;47622;47.726;3.298;2023-02-20T02:07:15;11.70;;;5.65;;
61702;SDS011;47622;47.726;3.298;2023-02-20T02:09:44;10.23;;;5.32;;
61702;SDS011;47622;47.726;3.298;2023-02-20T02:12:11;12.35;;;5.88;;
61702;SDS011;47622;47.726;3.298;2023-02-20T02:14:37;10.48;;;5.82;;
61702;SDS011;47622;47.726;3.298;2023-02-20T02:23:09;10.43;;;5.78;;
61702;SDS011;47622;47.726;3.298;2023-02-20T02:42:07;13.88;;;9.20;;
61702;SDS011;47622;47.726;3.298;2023-02-20T02:50:00;13.15;;;6.70;;
61702;SDS011;47622;47.726;3.298;2023-02-20T02:52:30;13.20;;;6.18;;
61702;SDS011;47622;47.726;3.298;2023-02-20T02:55:06;10.70;;;6.15;;
61702;SDS011;47622;47.726;3.298;2023-02-20T02:57:33;10.20;;;5.88;;
61702;SDS011;47622;47.726;3.298;2023-02-20T03:00:00;10.32;;;5.13;;
61702;SDS011;47622;47.726;3.298;2023-02-20T03:04:59;7.28;;;4.40;;
61702;SDS011;47622;47.726;3.298;2023-02-20T03:07:28;16.70;;;5.28;;
61702;SDS011;47622;47.726;3.298;2023-02-20T03:09:57;9.88;;;4.95;;
61702;SDS011;47622;47.726;3.298;2023-02-20T03:12:27;11.95;;;4.57;;
61702;SDS011;47622;47.726;3.298;2023-02-20T03:14:58;8.77;;;5.03;;
61702;SDS011;47622;47.726;3.298;2023-02-20T03:17:47;6.20;;;4.63;;
61702;SDS011;47622;47.726;3.298;2023-02-20T03:20:19;10.88;;;4.90;;
61702;SDS011;47622;47.726;3.298;2023-02-20T03:22:48;8.05;;;5.22;;
61702;SDS011;47622;47.726;3.298;2023-02-20T03:25:27;9.60;;;4.97;;
61702;SDS011;47622;47.726;3.298;2023-02-20T03:28:27;11.02;;;5.05;;
61702;SDS011;47622;47.726;3.298;2023-02-20T03:31:00;10.23;;;5.45;;
61702;SDS011;47622;47.726;3.298;2023-02-20T03:33:44;10.73;;;6.55;;
61702;SDS011;47622;47.726;3.298;2023-02-20T03:37:00;9.95;;;6.47;;
61702;SDS011;47622;47.726;3.298;2023-02-20T03:39:50;15.77;;;7.75;;
61702;SDS011;47622;47.726;3.298;2023-02-20T03:42:39;11.32;;;6.28;;
61702;SDS011;47622;47.726;3.298;2023-02-20T03:45:27;10.32;;;5.93;;
61702;SDS011;47622;47.726;3.298;2023-02-20T03:47:58;11.57;;;6.47;;
61702;SDS011;47622;47.726;3.298;2023-02-20T03:50:26;14.65;;;6.80;;
61702;SDS011;47622;47.726;3.298;2023-02-20T03:53:10;16.38;;;6.85;;
61702;SDS011;47622;47.726;3.298;2023-02-20T03:55:36;14.60;;;6.65;;
61702;SDS011;47622;47.726;3.298;2023-02-20T03:58:03;14.48;;;6.72;;
61702;SDS011;47622;47.726;3.298;2023-02-20T04:00:34;14.02;;;6.75;;
61702;SDS011;47622;47.726;3.298;2023-02-20T04:03:09;11.20;;;5.80;;
61702;SDS011;47622;47.726;3.298;2023-02-20T04:05:41;12.95;;;6.18;;
61702;SDS011;47622;47.726;3.298;2023-02-20T04:08:13;12.25;;;6.35;;
61702;SDS011;47622;47.726;3.298;2023-02-20T04:10:43;9.85;;;5.75;;
61702;SDS011;47622;47.726;3.298;2023-02-20T04:13:13;9.60;;;6.30;;
61702;SDS011;47622;47.726;3.298;2023-02-20T04:15:40;8.20;;;5.68;;
61702;SDS011;47622;47.726;3.298;2023-02-20T04:18:12;14.55;;;4.80;;
61702;SDS011;47622;47.726;3.298;2023-02-20T04:20:39;9.07;;;5.13;;
61702;SDS011;47622;47.726;3.298;2023-02-20T04:23:16;8.07;;;5.07;;
61702;SDS011;47622;47.726;3.298;2023-02-20T04:28:21;8.02;;;5.28;;
61702;SDS011;47622;47.726;3.298;2023-02-20T04:30:48;9.10;;;5.47;;
61702;SDS011;47622;47.726;3.298;2023-02-20T04:33:14;10.10;;;5.65;;
61702;SDS011;47622;47.726;3.298;2023-02-20T04:35:40;9.05;;;5.13;;
61702;SDS011;47622;47.726;3.298;2023-02-20T04:38:07;8.82;;;5.15;;
61702;SDS011;47622;47.726;3.298;2023-02-20T04:40:33;8.63;;;4.88;;
61702;SDS011;47622;47.726;3.298;2023-02-20T04:42:58;8.75;;;5.07;;
61702;SDS011;47622;47.726;3.298;2023-02-20T04:45:24;13.07;;;5.57;;
61702;SDS011;47622;47.726;3.298;2023-02-20T04:47:50;9.45;;;5.40;;
61702;SDS011;47622;47.726;3.298;2023-02-20T04:50:21;11.45;;;5.75;;
61702;SDS011;47622;47.726;3.298;2023-02-20T04:52:51;8.73;;;4.82;;
61702;SDS011;47622;47.726;3.298;2023-02-20T04:55:17;8.80;;;5.25;;
61702;SDS011;47622;47.726;3.298;2023-02-20T04:57:44;11.13;;;6.20;;
61702;SDS011;47622;47.726;3.298;2023-02-20T05:00:11;15.95;;;7.38;;
61702;SDS011;47622;47.726;3.298;2023-02-20T05:02:39;14.10;;;6.32;;
61702;SDS011;47622;47.726;3.298;2023-02-20T05:05:05;14.38;;;6.70;;
61702;SDS011;47622;47.726;3.298;2023-02-20T05:07:32;13.90;;;6.25;;
61702;SDS011;47622;47.726;3.298;2023-02-20T05:09:58;10.93;;;6.20;;
61702;SDS011;47622;47.726;3.298;2023-02-20T05:12:24;15.20;;;6.82;;
61702;SDS011;47622;47.726;3.298;2023-02-20T05:14:50;13.05;;;7.57;;
61702;SDS011;47622;47.726;3.298;2023-02-20T05:17:15;11.77;;;6.15;;
61702;SDS011;47622;47.726;3.298;2023-02-20T05:19:41;13.75;;;6.00;;
61702;SDS011;47622;47.726;3.298;2023-02-20T05:22:10;12.48;;;5.55;;
61702;SDS011;47622;47.726;3.298;2023-02-20T05:24:47;10.48;;;5.75;;
61702;SDS011;47622;47.726;3.298;2023-02-20T05:27:15;12.52;;;5.90;;
61702;SDS011;47622;47.726;3.298;2023-02-20T05:29:45;10.85;;;5.68;;
61702;SDS011;47622;47.726;3.298;2023-02-20T05:32:13;9.60;;;5.05;;
61702;SDS011;47622;47.726;3.298;2023-02-20T05:34:40;10.85;;;5.80;;
61702;SDS011;47622;47.726;3.298;2023-02-20T05:37:06;16.02;;;5.93;;
61702;SDS011;47622;47.726;3.298;2023-02-20T05:39:32;9.48;;;5.90;;
61702;SDS011;47622;47.726;3.298;2023-02-20T05:41:58;14.50;;;6.35;;
61702;SDS011;47622;47.726;3.298;2023-02-20T05:44:23;12.60;;;5.68;;
61702;SDS011;47622;47.726;3.298;2023-02-20T05:46:49;9.48;;;6.15;;
61702;SDS011;47622;47.726;3.298;2023-02-20T05:49:15;12.40;;;6.32;;
61702;SDS011;47622;47.726;3.298;2023-02-20T05:51:42;8.70;;;5.70;;
61702;SDS011;47622;47.726;3.298;2023-02-20T05:54:07;14.00;;;6.65;;
61702;SDS011;47622;47.726;3.298;2023-02-20T05:56:33;10.40;;;6.57;;
61702;SDS011;47622;47.726;3.298;2023-02-20T05:58:59;8.80;;;6.00;;
61702;SDS011;47622;47.726;3.298;2023-02-20T06:01:27;11.73;;;6.22;;
61702;SDS011;47622;47.726;3.298;2023-02-20T06:03:54;11.00;;;6.60;;
61702;SDS011;47622;47.726;3.298;2023-02-20T06:06:20;11.38;;;7.10;;
61702;SDS011;47622;47.726;3.298;2023-02-20T06:08:46;9.43;;;5.85;;
61702;SDS011;47622;47.726;3.298;2023-02-20T06:11:13;12.90;;;6.50;;
61702;SDS011;47622;47.726;3.298;2023-02-20T06:13:40;12.45;;;5.60;;
61702;SDS011;47622;47.726;3.298;2023-02-20T06:16:08;13.07;;;5.63;;
61702;SDS011;47622;47.726;3.298;2023-02-20T06:18:37;9.25;;;5.13;;
61702;SDS011;47622;47.726;3.298;2023-02-20T06:21:07;11.90;;;5.30;;
61702;SDS011;47622;47.726;3.298;2023-02-20T06:23:34;9.57;;;5.63;;
61702;SDS011;47622;47.726;3.298;2023-02-20T06:26:03;11.68;;;5.82;;
61702;SDS011;47622;47.726;3.298;2023-02-20T06:28:29;14.77;;;5.75;;
61702;SDS011;47622;47.726;3.298;2023-02-20T06:30:55;15.25;;;7.07;;
61702;SDS011;47622;47.726;3.298;2023-02-20T06:33:21;16.98;;;9.20;;
61702;SDS011;47622;47.726;3.298;2023-02-20T06:35:46;19.95;;;9.07;;
61702;SDS011;47622;47.726;3.298;2023-02-20T06:38:12;14.38;;;6.53;;
61702;SDS011;47622;47.726;3.298;2023-02-20T06:40:38;15.55;;;6.43;;
61702;SDS011;47622;47.726;3.298;2023-02-20T06:43:04;14.60;;;6.70;;
61702;SDS011;47622;47.726;3.298;2023-02-20T06:45:29;12.07;;;6.03;;
61702;SDS011;47622;47.726;3.298;2023-02-20T06:47:55;12.13;;;6.72;;
61702;SDS011;47622;47.726;3.298;2023-02-20T06:50:20;12.98;;;7.18;;
61702;SDS011;47622;47.726;3.298;2023-02-20T06:52:46;12.07;;;6.50;;
61702;SDS011;47622;47.726;3.298;2023-02-20T06:55:12;13.30;;;6.72;;
61702;SDS011;47622;47.726;3.298;2023-02-20T06:57:38;12.32;;;6.65;;
61702;SDS011;47622;47.726;3.298;2023-02-20T07:00:04;7.97;;;5.90;;
61702;SDS011;47622;47.726;3.298;2023-02-20T07:02:30;14.18;;;7.10;;
61702;SDS011;47622;47.726;3.298;2023-02-20T07:04:56;9.20;;;6.13;;
61702;SDS011;47622;47.726;3.298;2023-02-20T07:07:21;10.70;;;5.82;;
61702;SDS011;47622;47.726;3.298;2023-02-20T07:09:47;8.65;;;5.95;;
61702;SDS011;47622;47.726;3.298;2023-02-20T07:12:12;9.48;;;6.07;;
61702;SDS011;47622;47.726;3.298;2023-02-20T07:14:38;8.88;;;6.20;;
61702;SDS011;47622;47.726;3.298;2023-02-20T07:17:04;8.98;;;6.22;;
61702;SDS011;47622;47.726;3.298;2023-02-20T07:19:29;9.85;;;6.70;;
61702;SDS011;47622;47.726;3.298;2023-02-20T07:21:55;8.77;;;6.30;;
61702;SDS011;47622;47.726;3.298;2023-02-20T07:24:20;9.05;;;6.07;;
61702;SDS011;47622;47.726;3.298;2023-02-20T07:26:46;10.32;;;6.43;;
61702;SDS011;47622;47.726;3.298;2023-02-20T07:29:12;7.25;;;5.65;;
61702;SDS011;47622;47.726;3.298;2023-02-20T07:31:38;7.38;;;5.47;;
61702;SDS011;47622;47.726;3.298;2023-02-20T07:34:04;6.30;;;5.43;;
61702;SDS011;47622;47.726;3.298;2023-02-20T07:36:29;8.48;;;5.95;;
61702;SDS011;47622;47.726;3.298;2023-02-20T07:38:58;8.88;;;6.30;;
61702;SDS011;47622;47.726;3.298;2023-02-20T07:41:25;9.65;;;6.38;;
61702;SDS011;47622;47.726;3.298;2023-02-20T07:44:02;10.82;;;7.72;;
61702;SDS011;47622;47.726;3.298;2023-02-20T07:46:28;9.23;;;6.13;;
61702;SDS011;47622;47.726;3.298;2023-02-20T07:48:58;14.25;;;7.22;;
61702;SDS011;47622;47.726;3.298;2023-02-20T07:51:24;12.38;;;7.40;;
61702;SDS011;47622;47.726;3.298;2023-02-20T07:53:50;13.68;;;7.13;;
61702;SDS011;47622;47.726;3.298;2023-02-20T07:56:19;15.75;;;7.57;;
61702;SDS011;47622;47.726;3.298;2023-02-20T07:58:46;11.88;;;7.22;;
61702;SDS011;47622;47.726;3.298;2023-02-20T08:01:12;10.75;;;7.10;;
61702;SDS011;47622;47.726;3.298;2023-02-20T08:03:38;12.25;;;7.35;;
61702;SDS011;47622;47.726;3.298;2023-02-20T08:06:04;12.88;;;7.55;;
61702;SDS011;47622;47.726;3.298;2023-02-20T08:08:30;10.15;;;6.95;;
61702;SDS011;47622;47.726;3.298;2023-02-20T08:10:56;9.57;;;6.88;;
61702;SDS011;47622;47.726;3.298;2023-02-20T08:13:21;9.75;;;7.35;;
61702;SDS011;47622;47.726;3.298;2023-02-20T08:15:47;9.10;;;6.22;;
61702;SDS011;47622;47.726;3.298;2023-02-20T08:18:13;10.82;;;6.63;;
61702;SDS011;47622;47.726;3.298;2023-02-20T08:20:39;10.18;;;7.10;;
61702;SDS011;47622;47.726;3.298;2023-02-20T08:23:05;11.52;;;7.30;;
61702;SDS011;47622;47.726;3.298;2023-02-20T08:25:40;15.40;;;8.30;;
61702;SDS011;47622;47.726;3.298;2023-02-20T08:28:06;11.10;;;7.03;;
61702;SDS011;47622;47.726;3.298;2023-02-20T08:30:31;12.30;;;8.00;;
61702;SDS011;47622;47.726;3.298;2023-02-20T08:32:57;21.38;;;12.82;;
61702;SDS011;47622;47.726;3.298;2023-02-20T08:35:23;21.25;;;11.48;;
61702;SDS011;47622;47.726;3.298;2023-02-20T08:37:49;15.80;;;9.75;;
61702;SDS011;47622;47.726;3.298;2023-02-20T08:40:15;11.88;;;8.63;;
61702;SDS011;47622;47.726;3.298;2023-02-20T08:42:40;8.70;;;6.38;;
61702;SDS011;47622;47.726;3.298;2023-02-20T08:45:07;9.07;;;6.10;;
61702;SDS011;47622;47.726;3.298;2023-02-20T08:47:33;9.15;;;6.25;;
61702;SDS011;47622;47.726;3.298;2023-02-20T08:49:58;9.43;;;5.60;;
61702;SDS011;47622;47.726;3.298;2023-02-20T08:52:24;8.13;;;5.70;;
61702;SDS011;47622;47.726;3.298;2023-02-20T08:59:41;6.03;;;4.57;;
61702;SDS011;47622;47.726;3.298;2023-02-20T09:02:08;9.38;;;5.30;;
61702;SDS011;47622;47.726;3.298;2023-02-20T09:04:41;5.65;;;4.40;;
61702;SDS011;47622;47.726;3.298;2023-02-20T09:07:09;5.43;;;4.50;;
61702;SDS011;47622;47.726;3.298;2023-02-20T09:09:34;7.18;;;5.40;;
61702;SDS011;47622;47.726;3.298;2023-02-20T09:12:00;6.55;;;5.15;;
61702;SDS011;47622;47.726;3.298;2023-02-20T09:14:26;6.70;;;5.60;;
61702;SDS011;47622;47.726;3.298;2023-02-20T09:16:51;7.45;;;5.22;;
61702;SDS011;47622;47.726;3.298;2023-02-20T09:19:18;5.50;;;4.97;;
61702;SDS011;47622;47.726;3.298;2023-02-20T09:21:46;7.72;;;5.15;;
61702;SDS011;47622;47.726;3.298;2023-02-20T09:24:12;6.07;;;4.18;;
61702;SDS011;47622;47.726;3.298;2023-02-20T09:26:38;5.00;;;4.40;;
61702;SDS011;47622;47.726;3.298;2023-02-20T09:29:03;5.70;;;4.32;;
61702;SDS011;47622;47.726;3.298;2023-02-20T09:31:29;4.70;;;4.20;;
61702;SDS011;47622;47.726;3.298;2023-02-20T09:33:54;5.80;;;4.75;;
61702;SDS011;47622;47.726;3.298;2023-02-20T09:36:20;5.45;;;4.85;;
61702;SDS011;47622;47.726;3.298;2023-02-20T09:38:46;5.25;;;4.75;;
61702;SDS011;47622;47.726;3.298;2023-02-20T09:41:17;6.70;;;4.30;;
61702;SDS011;47622;47.726;3.298;2023-02-20T09:47:02;6.97;;;4.90;;
61702;SDS011;47622;47.726;3.298;2023-02-20T09:49:43;5.03;;;4.40;;
61702;SDS011;47622;47.726;3.298;2023-02-20T09:52:11;6.45;;;4.30;;
61702;SDS011;47622;47.726;3.298;2023-02-20T09:54:41;5.18;;;4.38;;
61702;SDS011;47622;47.726;3.298;2023-02-20T09:57:16;7.47;;;4.53;;
61702;SDS011;47622;47.726;3.298;2023-02-20T09:59:51;6.18;;;4.40;;
61702;SDS011;47622;47.726;3.298;2023-02-20T10:02:20;5.38;;;4.20;;
61702;SDS011;47622;47.726;3.298;2023-02-20T10:04:52;6.13;;;4.30;;
61702;SDS011;47622;47.726;3.298;2023-02-20T10:09:50;6.13;;;4.35;;
61702;SDS011;47622;47.726;3.298;2023-02-20T10:12:19;4.15;;;3.75;;
61702;SDS011;47622;47.726;3.298;2023-02-20T10:20:22;4.65;;;3.90;;
61702;SDS011;47622;47.726;3.298;2023-02-20T10:22:57;7.03;;;5.00;;
61702;SDS011;47622;47.726;3.298;2023-02-20T10:25:33;7.07;;;4.50;;
61702;SDS011;47622;47.726;3.298;2023-02-20T10:28:06;6.93;;;4.63;;
61702;SDS011;47622;47.726;3.298;2023-02-20T10:35:43;6.45;;;4.85;;
61702;SDS011;47622;47.726;3.298;2023-02-20T10:38:13;7.47;;;4.28;;
61702;SDS011;47622;47.726;3.298;2023-02-20T10:40:50;6.75;;;3.53;;
61702;SDS011;47622;47.726;3.298;2023-02-20T10:43:24;6.80;;;3.80;;
61702;SDS011;47622;47.726;3.298;2023-02-20T10:45:57;6.20;;;3.80;;
61702;SDS011;47622;47.726;3.298;2023-02-20T10:48:30;5.50;;;4.00;;
61702;SDS011;47622;47.726;3.298;2023-02-20T10:53:38;5.90;;;3.80;;
61702;SDS011;47622;47.726;3.298;2023-02-20T10:56:13;2.95;;;2.50;;
61702;SDS011;47622;47.726;3.298;2023-02-20T10:58:56;5.65;;;2.90;;
61702;SDS011;47622;47.726;3.298;2023-02-20T11:01:33;5.07;;;2.97;;
61702;SDS011;47622;47.726;3.298;2023-02-20T11:04:01;8.85;;;2.85;;
61702;SDS011;47622;47.726;3.298;2023-02-20T11:06:45;6.55;;;3.05;;
61702;SDS011;47622;47.726;3.298;2023-02-20T11:09:31;5.07;;;2.50;;
61702;SDS011;47622;47.726;3.298;2023-02-20T11:11:57;4.43;;;2.45;;
61702;SDS011;47622;47.726;3.298;2023-02-20T11:16:58;5.82;;;2.63;;
61702;SDS011;47622;47.726;3.298;2023-02-20T11:19:33;4.60;;;2.72;;
61702;SDS011;47622;47.726;3.298;2023-02-20T11:22:01;3.28;;;2.45;;
61702;SDS011;47622;47.726;3.298;2023-02-20T11:26:56;4.63;;;2.78;;
61702;SDS011;47622;47.726;3.298;2023-02-20T11:29:24;4.03;;;2.88;;
61702;SDS011;47622;47.726;3.298;2023-02-20T11:35:14;4.53;;;2.75;;
61702;SDS011;47622;47.726;3.298;2023-02-20T11:37:49;3.63;;;2.80;;
61702;SDS011;47622;47.726;3.298;2023-02-20T11:43:13;4.25;;;2.97;;
61702;SDS011;47622;47.726;3.298;2023-02-20T11:45:45;4.45;;;2.80;;
61702;SDS011;47622;47.726;3.298;2023-02-20T11:48:11;3.13;;;2.65;;
61702;SDS011;47622;47.726;3.298;2023-02-20T11:50:43;5.18;;;3.40;;
61702;SDS011;47622;47.726;3.298;2023-02-20T11:53:22;6.05;;;2.97;;
61702;SDS011;47622;47.726;3.298;2023-02-20T11:56:10;4.65;;;3.50;;
61702;SDS011;47622;47.726;3.298;2023-02-20T11:58:38;4.72;;;3.15;;
61702;SDS011;47622;47.726;3.298;2023-02-20T12:01:05;5.10;;;2.88;;
61702;SDS011;47622;47.726;3.298;2023-02-20T12:03:32;4.45;;;3.25;;
61702;SDS011;47622;47.726;3.298;2023-02-20T12:05:59;7.82;;;3.50;;
61702;SDS011;47622;47.726;3.298;2023-02-20T12:08:50;6.38;;;3.55;;
61702;SDS011;47622;47.726;3.298;2023-02-20T12:11:21;5.28;;;3.25;;
61702;SDS011;47622;47.726;3.298;2023-02-20T12:13:50;7.60;;;3.78;;
61702;SDS011;47622;47.726;3.298;2023-02-20T12:19:17;5.35;;;3.65;;
61702;SDS011;47622;47.726;3.298;2023-02-20T12:30:02;4.72;;;3.72;;
61702;SDS011;47622;47.726;3.298;2023-02-20T12:33:16;5.78;;;3.70;;
61702;SDS011;47622;47.726;3.298;2023-02-20T12:35:23;5.85;;;3.42;;
61702;SDS011;47622;47.726;3.298;2023-02-20T12:54:59;5.82;;;3.67;;
61702;SDS011;47622;47.726;3.298;2023-02-20T12:58:20;7.65;;;4.18;;
61702;SDS011;47622;47.726;3.298;2023-02-20T13:00:50;6.10;;;3.60;;
61702;SDS011;47622;47.726;3.298;2023-02-20T13:03:19;5.60;;;4.10;;
61702;SDS011;47622;47.726;3.298;2023-02-20T13:05:49;6.32;;;3.80;;
61702;SDS011;47622;47.726;3.298;2023-02-20T13:11:20;4.63;;;3.40;;
61702;SDS011;47622;47.726;3.298;2023-02-20T13:13:52;6.60;;;3.90;;
61702;SDS011;47622;47.726;3.298;2023-02-20T13:22:13;5.70;;;3.50;;
61702;SDS011;47622;47.726;3.298;2023-02-20T13:24:40;4.50;;;3.05;;
61702;SDS011;47622;47.726;3.298;2023-02-20T13:27:10;4.32;;;3.22;;
61702;SDS011;47622;47.726;3.298;2023-02-20T13:30:08;6.45;;;3.53;;
61702;SDS011;47622;47.726;3.298;2023-02-20T13:32:43;4.78;;;3.35;;
61702;SDS011;47622;47.726;3.298;2023-02-20T13:35:52;4.93;;;3.28;;
61702;SDS011;47622;47.726;3.298;2023-02-20T13:38:14;5.63;;;3.50;;
61702;SDS011;47622;47.726;3.298;2023-02-20T13:43:27;5.05;;;3.53;;
61702;SDS011;47622;47.726;3.298;2023-02-20T13:56:26;6.68;;;3.92;;
61702;SDS011;47622;47.726;3.298;2023-02-20T13:59:11;5.25;;;3.40;;
61702;SDS011;47622;47.726;3.298;2023-02-20T14:04:29;6.63;;;3.50;;
61702;SDS011;47622;47.726;3.298;2023-02-20T14:06:55;7.38;;;3.83;;
61702;SDS011;47622;47.726;3.298;2023-02-20T14:09:24;6.10;;;3.72;;
61702;SDS011;47622;47.726;3.298;2023-02-20T14:12:00;5.45;;;3.30;;
61702;SDS011;47622;47.726;3.298;2023-02-20T14:14:31;8.25;;;3.97;;
61702;SDS011;47622;47.726;3.298;2023-02-20T14:19:40;7.57;;;3.70;;
61702;SDS011;47622;47.726;3.298;2023-02-20T14:27:48;7.45;;;3.50;;
61702;SDS011;47622;47.726;3.298;2023-02-20T14:30:16;5.43;;;3.50;;
61702;SDS011;47622;47.726;3.298;2023-02-20T14:32:52;5.72;;;3.60;;
61702;SDS011;47622;47.726;3.298;2023-02-20T14:40:45;4.35;;;2.97;;
61702;SDS011;47622;47.726;3.298;2023-02-20T14:43:15;5.13;;;2.80;;
61702;SDS011;47622;47.726;3.298;2023-02-20T14:45:44;5.97;;;3.28;;
61702;SDS011;47622;47.726;3.298;2023-02-20T14:48:22;5.43;;;3.25;;
61702;SDS011;47622;47.726;3.298;2023-02-20T14:53:41;5.35;;;3.45;;
61702;SDS011;47622;47.726;3.298;2023-02-20T14:56:09;7.35;;;3.25;;
61702;SDS011;47622;47.726;3.298;2023-02-20T14:58:39;7.00;;;3.05;;
61702;SDS011;47622;47.726;3.298;2023-02-20T15:01:27;5.22;;;3.08;;
61702;SDS011;47622;47.726;3.298;2023-02-20T15:04:10;6.45;;;2.60;;
61702;SDS011;47622;47.726;3.298;2023-02-20T15:06:37;8.20;;;3.58;;
61702;SDS011;47622;47.726;3.298;2023-02-20T15:09:05;7.55;;;3.40;;
61702;SDS011;47622;47.726;3.298;2023-02-20T15:11:32;6.18;;;3.70;;
61702;SDS011;47622;47.726;3.298;2023-02-20T15:13:58;6.45;;;3.70;;
61702;SDS011;47622;47.726;3.298;2023-02-20T15:16:26;4.40;;;3.50;;
61702;SDS011;47622;47.726;3.298;2023-02-20T15:18:53;7.78;;;4.53;;
61702;SDS011;47622;47.726;3.298;2023-02-20T15:21:39;7.63;;;4.50;;
61702;SDS011;47622;47.726;3.298;2023-02-20T15:27:16;8.43;;;3.58;;
61702;SDS011;47622;47.726;3.298;2023-02-20T15:29:44;6.63;;;3.42;;
61702;SDS011;47622;47.726;3.298;2023-02-20T15:32:23;3.95;;;2.97;;
61702;SDS011;47622;47.726;3.298;2023-02-20T15:34:51;4.13;;;2.83;;
61702;SDS011;47622;47.726;3.298;2023-02-20T15:39:49;6.13;;;3.33;;
61702;SDS011;47622;47.726;3.298;2023-02-20T15:42:16;7.13;;;3.28;;
61702;SDS011;47622;47.726;3.298;2023-02-20T15:44:42;7.43;;;4.43;;
61702;SDS011;47622;47.726;3.298;2023-02-20T15:47:08;5.20;;;3.65;;
61702;SDS011;47622;47.726;3.298;2023-02-20T15:49:34;6.38;;;3.85;;
61702;SDS011;47622;47.726;3.298;2023-02-20T15:52:00;5.53;;;4.18;;
61702;SDS011;47622;47.726;3.298;2023-02-20T15:54:26;5.93;;;3.60;;
61702;SDS011;47622;47.726;3.298;2023-02-20T15:56:52;7.78;;;3.92;;
61702;SDS011;47622;47.726;3.298;2023-02-20T15:59:18;9.02;;;4.63;;
61702;SDS011;47622;47.726;3.298;2023-02-20T16:01:44;8.75;;;3.95;;
61702;SDS011;47622;47.726;3.298;2023-02-20T16:04:14;9.00;;;4.40;;
61702;SDS011;47622;47.726;3.298;2023-02-20T16:06:41;5.40;;;3.67;;
61702;SDS011;47622;47.726;3.298;2023-02-20T16:09:07;7.85;;;4.68;;
61702;SDS011;47622;47.726;3.298;2023-02-20T16:11:40;8.57;;;4.70;;
61702;SDS011;47622;47.726;3.298;2023-02-20T16:14:11;6.38;;;4.40;;
61702;SDS011;47622;47.726;3.298;2023-02-20T16:16:45;6.55;;;4.47;;
61702;SDS011;47622;47.726;3.298;2023-02-20T16:19:16;8.38;;;5.45;;
61702;SDS011;47622;47.726;3.298;2023-02-20T16:21:43;7.88;;;4.90;;
61702;SDS011;47622;47.726;3.298;2023-02-20T16:24:10;9.68;;;5.10;;
61702;SDS011;47622;47.726;3.298;2023-02-20T16:26:36;6.88;;;4.40;;
61702;SDS011;47622;47.726;3.298;2023-02-20T16:29:19;8.57;;;5.80;;
61702;SDS011;47622;47.726;3.298;2023-02-20T16:34:22;9.00;;;5.47;;
61702;SDS011;47622;47.726;3.298;2023-02-20T16:36:50;8.50;;;5.00;;
61702;SDS011;47622;47.726;3.298;2023-02-20T16:39:16;8.73;;;5.45;;
61702;SDS011;47622;47.726;3.298;2023-02-20T16:41:43;9.63;;;5.80;;
61702;SDS011;47622;47.726;3.298;2023-02-20T16:44:13;7.95;;;5.57;;
61702;SDS011;47622;47.726;3.298;2023-02-20T16:47:00;8.32;;;5.80;;
61702;SDS011;47622;47.726;3.298;2023-02-20T16:49:25;8.73;;;5.60;;
61702;SDS011;47622;47.726;3.298;2023-02-20T16:51:51;6.85;;;5.22;;
61702;SDS011;47622;47.726;3.298;2023-02-20T16:54:25;10.50;;;5.18;;
61702;SDS011;47622;47.726;3.298;2023-02-20T16:56:52;8.00;;;5.35;;
61702;SDS011;47622;47.726;3.298;2023-02-20T16:59:17;9.95;;;6.60;;
61702;SDS011;47622;47.726;3.298;2023-02-20T17:01:46;8.15;;;5.88;;
61702;SDS011;47622;47.726;3.298;2023-02-20T17:04:11;9.65;;;5.93;;
61702;SDS011;47622;47.726;3.298;2023-02-20T17:06:38;7.47;;;5.60;;
61702;SDS011;47622;47.726;3.298;2023-02-20T17:09:04;10.57;;;6.57;;
61702;SDS011;47622;47.726;3.298;2023-02-20T17:11:29;11.75;;;5.93;;
61702;SDS011;47622;47.726;3.298;2023-02-20T17:13:55;9.07;;;6.25;;
61702;SDS011;47622;47.726;3.298;2023-02-20T17:16:21;8.45;;;5.32;;
61702;SDS011;47622;47.726;3.298;2023-02-20T17:18:46;8.38;;;6.28;;
61702;SDS011;47622;47.726;3.298;2023-02-20T17:21:12;7.75;;;5.88;;
61702;SDS011;47622;47.726;3.298;2023-02-20T17:23:37;8.65;;;5.57;;
61702;SDS011;47622;47.726;3.298;2023-02-20T17:26:03;11.77;;;6.93;;
61702;SDS011;47622;47.726;3.298;2023-02-20T17:28:29;11.65;;;6.93;;